Terminal Aerodrome Forecast
Issued by NWS Northern Indiana

Home | Current Version | Previous Version | Text Only | Print | Product List | Glossary On
Versions: 1 2 3 4 5 6 7 8 9 10 11 12 13 14
000
FTUS43 KIWX 282300
TAFFWA
TAF
KFWA 282335Z 2900/2924 31006KT P6SM SKC
     FM290200 VRB03KT P6SM SKC
     FM290600 17005KT P6SM FEW250
     FM291500 18017G24KT P6SM BKN150
     FM291800 19018G30KT 6SM -SHRA BR BKN040=

USA.gov is the U.S. government's official web portal to all federal, state and local government web resources and services.